createdAt,value
2022-11-19T00:01:38.140Z,54.30
2022-11-19T00:04:04.592Z,54.30
2022-11-19T00:06:31.066Z,54.30
2022-11-19T00:08:57.522Z,54.00
2022-11-19T00:11:24.003Z,54.10
2022-11-19T00:13:50.482Z,54.00
2022-11-19T00:16:16.963Z,54.00
2022-11-19T00:18:43.417Z,54.00
2022-11-19T00:21:09.883Z,53.80
2022-11-19T00:23:36.346Z,53.80
2022-11-19T00:26:02.823Z,53.60
2022-11-19T00:28:29.304Z,53.80
2022-11-19T00:30:55.779Z,53.70
2022-11-19T00:33:22.262Z,53.60
2022-11-19T00:35:48.900Z,53.40
2022-11-19T00:40:55.700Z,53.40
2022-11-19T00:43:22.170Z,53.30
2022-11-19T00:45:48.644Z,53.40
2022-11-19T00:48:15.281Z,53.50
2022-11-19T00:50:41.737Z,53.40
2022-11-19T00:53:08.206Z,53.30
2022-11-19T00:55:34.688Z,53.40
2022-11-19T00:58:01.147Z,53.40
2022-11-19T01:00:27.599Z,53.90
2022-11-19T01:02:54.058Z,53.00
2022-11-19T01:05:20.516Z,53.20
2022-11-19T01:07:47.022Z,53.10
2022-11-19T01:10:13.501Z,53.00
2022-11-19T01:12:39.980Z,53.10
2022-11-19T01:15:06.422Z,52.70
2022-11-19T01:17:32.886Z,52.80
2022-11-19T01:19:59.395Z,53.00
2022-11-19T01:22:25.902Z,52.90
2022-11-19T01:24:52.356Z,52.70
2022-11-19T01:27:18.819Z,52.70
2022-11-19T01:29:45.295Z,52.70
2022-11-19T01:32:11.769Z,52.60
2022-11-19T01:34:38.336Z,52.70
2022-11-19T01:37:04.832Z,52.50
2022-11-19T01:39:31.349Z,52.70
2022-11-19T01:41:57.847Z,52.50
2022-11-19T01:44:24.330Z,52.30
2022-11-19T01:46:50.787Z,52.30
2022-11-19T01:49:17.456Z,52.30
2022-11-19T01:51:44.080Z,52.60
2022-11-19T01:54:10.557Z,52.60
2022-11-19T01:56:37.045Z,52.20
2022-11-19T01:59:03.535Z,52.20
2022-11-19T02:01:30.063Z,52.20
2022-11-19T02:03:56.730Z,52.20
2022-11-19T02:06:23.191Z,52.10
2022-11-19T02:08:49.662Z,52.20
2022-11-19T02:11:16.176Z,52.10
2022-11-19T02:13:42.683Z,52.00
2022-11-19T02:16:09.163Z,52.00
2022-11-19T02:18:35.655Z,52.00
2022-11-19T02:21:03.402Z,51.80
2022-11-19T02:23:30.056Z,51.60
2022-11-19T02:25:56.560Z,51.50
2022-11-19T02:28:23.121Z,51.60
2022-11-19T02:30:49.585Z,51.40
2022-11-19T02:33:16.084Z,51.30
2022-11-19T02:35:42.556Z,51.30
2022-11-19T02:38:09.051Z,51.40
2022-11-19T02:40:35.534Z,51.10
2022-11-19T02:43:02.008Z,51.40
2022-11-19T02:45:28.500Z,51.40
2022-11-19T02:47:54.945Z,51.00
2022-11-19T02:53:01.750Z,51.20
2022-11-19T02:55:28.230Z,51.20
2022-11-19T02:57:54.728Z,51.00
2022-11-19T03:00:21.217Z,51.00
2022-11-19T03:02:47.683Z,50.80
2022-11-19T03:05:14.143Z,50.70
2022-11-19T03:07:40.637Z,50.90
2022-11-19T03:10:07.175Z,50.70
2022-11-19T03:12:33.651Z,50.60
2022-11-19T03:15:00.151Z,50.80
2022-11-19T03:17:26.639Z,50.60
2022-11-19T03:19:53.138Z,50.70
2022-11-19T03:22:19.602Z,50.50
2022-11-19T03:24:46.079Z,50.40
2022-11-19T03:27:12.563Z,50.60
2022-11-19T03:29:39.029Z,50.20
2022-11-19T03:32:05.693Z,50.30
2022-11-19T03:34:32.185Z,49.80
2022-11-19T03:36:58.663Z,50.30
2022-11-19T03:39:27.168Z,50.00
2022-11-19T03:41:53.765Z,50.00
2022-11-19T03:44:20.230Z,49.90
2022-11-19T03:46:46.706Z,50.20
2022-11-19T03:49:13.176Z,50.10
2022-11-19T03:51:39.622Z,50.20
2022-11-19T03:54:06.107Z,50.10
2022-11-19T03:56:32.597Z,50.00
2022-11-19T03:58:59.082Z,50.10
2022-11-19T04:01:25.602Z,49.90
2022-11-19T04:03:52.121Z,49.80
2022-11-19T04:06:18.676Z,50.10
2022-11-19T04:08:45.166Z,50.20
2022-11-19T04:13:42.998Z,49.90
2022-11-19T04:16:09.467Z,49.60
2022-11-19T04:18:35.919Z,49.60
2022-11-19T04:21:02.375Z,49.80
2022-11-19T04:23:28.839Z,49.90
2022-11-19T04:25:55.307Z,49.90
2022-11-19T04:28:21.793Z,49.60
2022-11-19T04:30:48.277Z,49.50
2022-11-19T04:33:14.745Z,49.40
2022-11-19T04:35:41.228Z,49.30
2022-11-19T04:38:07.714Z,49.40
2022-11-19T04:40:34.181Z,49.00
2022-11-19T04:43:00.648Z,49.50
2022-11-19T04:45:27.129Z,49.40
2022-11-19T04:47:53.574Z,49.30
2022-11-19T04:50:20.066Z,49.30
2022-11-19T04:52:46.541Z,49.20
2022-11-19T04:55:12.997Z,49.00
2022-11-19T04:57:39.459Z,48.80
2022-11-19T05:00:05.938Z,48.90
2022-11-19T05:02:32.419Z,48.80
2022-11-19T05:04:58.892Z,49.00
2022-11-19T05:07:25.376Z,48.80
2022-11-19T05:09:51.882Z,48.80
2022-11-19T05:12:18.340Z,48.90
2022-11-19T05:14:44.806Z,48.70
2022-11-19T05:17:11.278Z,48.70
2022-11-19T05:19:37.812Z,48.90
2022-11-19T05:22:04.263Z,48.70
2022-11-19T05:24:30.736Z,48.70
2022-11-19T05:26:57.194Z,48.50
2022-11-19T05:29:23.682Z,48.40
2022-11-19T05:31:50.141Z,48.50
2022-11-19T05:34:17.227Z,48.70
2022-11-19T05:36:43.752Z,48.70
2022-11-19T05:39:10.207Z,48.30
2022-11-19T05:41:36.688Z,48.40
2022-11-19T05:44:03.155Z,48.50
2022-11-19T05:46:29.651Z,48.40
2022-11-19T05:48:56.132Z,48.00
2022-11-19T05:51:22.603Z,48.20
2022-11-19T05:53:52.139Z,48.30
2022-11-19T05:56:18.757Z,48.10
2022-11-19T05:58:45.251Z,47.90
2022-11-19T06:01:11.726Z,47.70
2022-11-19T06:03:38.242Z,47.90
2022-11-19T06:06:04.697Z,47.90
2022-11-19T06:08:31.146Z,48.50
2022-11-19T06:10:57.823Z,48.00
2022-11-19T06:13:24.295Z,48.40
2022-11-19T06:15:50.794Z,48.00
2022-11-19T06:18:17.446Z,47.80
2022-11-19T06:20:43.921Z,47.60
2022-11-19T06:23:12.792Z,47.50
2022-11-19T06:25:39.273Z,47.50
2022-11-19T06:28:05.765Z,47.50
2022-11-19T06:30:32.231Z,47.20
2022-11-19T06:32:58.689Z,47.10
2022-11-19T06:35:25.228Z,47.20
2022-11-19T06:37:51.712Z,47.10
2022-11-19T06:40:18.172Z,47.80
2022-11-19T06:42:49.817Z,47.30
2022-11-19T06:45:17.499Z,47.30
2022-11-19T06:47:44.048Z,47.20
2022-11-19T06:50:10.500Z,47.20
2022-11-19T06:52:36.958Z,47.30
2022-11-19T06:55:03.422Z,47.30
2022-11-19T06:57:29.887Z,47.20
2022-11-19T06:59:56.355Z,47.30
2022-11-19T07:02:22.864Z,47.00
2022-11-19T07:04:49.345Z,47.20
2022-11-19T07:07:15.874Z,46.90
2022-11-19T07:09:42.391Z,46.80
2022-11-19T07:12:08.880Z,46.80
2022-11-19T07:14:35.355Z,46.70
2022-11-19T07:17:01.884Z,46.70
2022-11-19T07:19:28.366Z,46.70
2022-11-19T07:21:54.860Z,46.80
2022-11-19T07:24:21.349Z,46.60
2022-11-19T07:26:47.917Z,46.60
2022-11-19T07:29:14.368Z,46.40
2022-11-19T07:31:40.845Z,46.50
2022-11-19T07:34:07.305Z,46.50
2022-11-19T07:36:33.774Z,46.30
2022-11-19T07:39:00.242Z,46.50
2022-11-19T07:41:26.698Z,46.30
2022-11-19T07:43:53.180Z,46.50
2022-11-19T07:46:19.663Z,46.50
2022-11-19T07:48:46.126Z,46.50
2022-11-19T07:51:12.584Z,46.30
2022-11-19T07:53:39.058Z,46.40
2022-11-19T07:56:05.523Z,46.00
2022-11-19T07:58:32.006Z,46.10
2022-11-19T08:00:58.476Z,45.90
2022-11-19T08:03:24.975Z,46.10
2022-11-19T08:05:51.431Z,46.20
2022-11-19T08:08:18.099Z,46.40
2022-11-19T08:10:44.620Z,46.30
2022-11-19T08:13:11.083Z,45.90
2022-11-19T08:15:37.534Z,46.00
2022-11-19T08:18:04.029Z,46.00
2022-11-19T08:20:30.493Z,45.70
2022-11-19T08:22:56.981Z,45.90
2022-11-19T08:25:23.485Z,46.00
2022-11-19T08:27:49.948Z,46.10
2022-11-19T08:30:16.485Z,45.90
2022-11-19T08:32:42.965Z,45.90
2022-11-19T08:35:09.420Z,45.90
2022-11-19T08:37:35.892Z,45.90
2022-11-19T08:40:02.356Z,45.70
2022-11-19T08:42:28.820Z,45.80
2022-11-19T08:44:55.291Z,45.60
2022-11-19T08:47:21.753Z,45.60
2022-11-19T08:49:48.220Z,45.60
2022-11-19T08:52:14.670Z,45.60
2022-11-19T08:54:41.152Z,45.50
2022-11-19T08:57:07.619Z,45.50
2022-11-19T08:59:34.590Z,45.60
2022-11-19T09:02:01.055Z,45.50
2022-11-19T09:04:27.699Z,45.50
2022-11-19T09:06:57.308Z,45.20
2022-11-19T09:09:23.786Z,45.10
2022-11-19T09:11:50.254Z,45.10
2022-11-19T09:14:16.845Z,45.30
2022-11-19T09:16:43.372Z,45.40
2022-11-19T09:19:09.859Z,45.80
2022-11-19T09:21:36.334Z,45.20
2022-11-19T09:24:06.328Z,45.20
2022-11-19T09:26:32.794Z,45.10
2022-11-19T09:28:59.257Z,45.10
2022-11-19T09:31:25.794Z,44.90
2022-11-19T09:33:52.290Z,45.00
2022-11-19T09:36:18.795Z,44.80
2022-11-19T09:38:45.265Z,44.60
2022-11-19T09:41:11.750Z,44.70
2022-11-19T09:43:38.206Z,44.90
2022-11-19T09:46:04.676Z,44.90
2022-11-19T09:48:31.139Z,44.70
2022-11-19T09:50:57.601Z,44.80
2022-11-19T09:53:24.149Z,44.70
2022-11-19T09:55:50.867Z,44.70
2022-11-19T09:58:17.318Z,44.50
2022-11-19T10:00:43.908Z,44.50
2022-11-19T10:03:10.436Z,44.10
2022-11-19T10:05:36.941Z,44.30
2022-11-19T10:08:03.397Z,44.40
2022-11-19T10:10:29.871Z,44.40
2022-11-19T10:12:59.340Z,44.40
2022-11-19T10:15:25.925Z,44.50
2022-11-19T10:17:52.411Z,44.30
2022-11-19T10:20:19.018Z,44.10
2022-11-19T10:22:45.527Z,44.20
2022-11-19T10:25:12.043Z,44.10
2022-11-19T10:27:38.494Z,43.90
2022-11-19T10:30:06.108Z,44.00
2022-11-19T10:32:32.580Z,43.80
2022-11-19T10:34:59.190Z,44.00
2022-11-19T10:37:25.665Z,43.80
2022-11-19T10:39:52.155Z,43.90
2022-11-19T10:42:18.620Z,44.20
2022-11-19T10:44:45.096Z,43.50
2022-11-19T10:47:11.584Z,43.70
2022-11-19T10:49:38.091Z,43.80
2022-11-19T10:52:04.553Z,43.80
2022-11-19T10:54:31.215Z,43.60
2022-11-19T10:56:57.930Z,43.60
2022-11-19T10:59:24.591Z,43.80
2022-11-19T11:01:51.062Z,43.60
2022-11-19T11:04:17.513Z,43.70
2022-11-19T11:06:43.992Z,43.60
2022-11-19T11:09:10.513Z,43.60
2022-11-19T11:11:36.989Z,43.70
2022-11-19T11:14:03.474Z,43.60
2022-11-19T11:16:32.713Z,43.80
2022-11-19T11:21:43.583Z,43.60
2022-11-19T11:24:10.062Z,43.70
2022-11-19T11:26:36.601Z,43.80
2022-11-19T11:29:03.068Z,43.90
2022-11-19T11:31:29.534Z,43.60
2022-11-19T11:33:56.074Z,43.70
2022-11-19T11:36:22.555Z,43.90
2022-11-19T11:38:49.120Z,43.60
2022-11-19T11:42:04.386Z,43.70
2022-11-19T11:44:02.051Z,43.80
2022-11-19T11:46:28.770Z,43.70
2022-11-19T11:48:57.883Z,43.80
2022-11-19T11:51:30.015Z,43.80
2022-11-19T11:53:56.460Z,44.00
2022-11-19T11:56:22.973Z,43.70
2022-11-19T11:58:49.468Z,43.70
2022-11-19T12:01:16.250Z,43.50
2022-11-19T12:03:54.562Z,44.10
2022-11-19T12:06:21.818Z,43.70
2022-11-19T12:08:48.295Z,43.70
2022-11-19T12:11:14.890Z,43.60
2022-11-19T12:13:41.402Z,43.60
2022-11-19T12:16:07.899Z,43.50
2022-11-19T12:18:34.638Z,43.40
2022-11-19T12:21:01.116Z,43.80
2022-11-19T12:23:29.813Z,43.70
2022-11-19T12:25:56.278Z,43.30
2022-11-19T12:28:22.762Z,44.00
2022-11-19T12:30:49.232Z,43.20
2022-11-19T12:33:15.700Z,43.50
2022-11-19T12:35:42.151Z,43.40
2022-11-19T12:38:08.623Z,43.50
2022-11-19T12:40:41.171Z,43.40
2022-11-19T12:43:08.275Z,43.50
2022-11-19T12:45:34.749Z,43.40
2022-11-19T12:48:01.275Z,43.40
2022-11-19T12:50:27.743Z,43.30
2022-11-19T12:52:54.217Z,43.30
2022-11-19T12:55:20.677Z,43.40
2022-11-19T12:57:47.175Z,43.20
2022-11-19T13:00:13.650Z,43.50
2022-11-19T13:02:40.155Z,43.30
2022-11-19T13:05:06.624Z,43.20
2022-11-19T13:07:33.093Z,43.30
2022-11-19T13:09:59.586Z,43.40
2022-11-19T13:12:26.038Z,43.30
2022-11-19T13:14:55.063Z,43.20
2022-11-19T13:17:21.645Z,43.30
2022-11-19T13:19:48.113Z,43.50
2022-11-19T13:22:14.572Z,43.90
2022-11-19T13:24:41.063Z,43.70
2022-11-19T13:27:07.524Z,43.60
2022-11-19T13:32:14.320Z,43.30
2022-11-19T13:34:40.805Z,43.00
2022-11-19T13:37:07.279Z,43.00
2022-11-19T13:39:33.769Z,44.10
2022-11-19T13:42:00.263Z,43.00
2022-11-19T13:44:26.743Z,43.20
2022-11-19T13:46:53.233Z,43.40
2022-11-19T13:49:19.850Z,42.80
2022-11-19T13:51:49.369Z,42.60
2022-11-19T13:54:15.851Z,42.80
2022-11-19T13:56:42.314Z,42.90
2022-11-19T13:59:08.807Z,43.00
2022-11-19T14:01:35.321Z,43.00
2022-11-19T14:04:01.845Z,42.70
2022-11-19T14:06:28.328Z,42.80
2022-11-19T14:09:00.710Z,43.00
2022-11-19T14:11:27.188Z,42.80
2022-11-19T14:13:53.903Z,42.70
2022-11-19T14:16:20.405Z,43.20
2022-11-19T14:18:51.520Z,42.60
2022-11-19T14:21:20.751Z,43.00
2022-11-19T14:23:47.225Z,43.30
2022-11-19T14:26:13.689Z,42.50
2022-11-19T14:28:40.165Z,42.60
2022-11-19T14:31:06.649Z,42.70
2022-11-19T14:33:33.113Z,42.70
2022-11-19T14:35:59.644Z,43.00
2022-11-19T14:38:26.102Z,43.00
2022-11-19T14:40:52.580Z,42.90
2022-11-19T14:43:19.055Z,42.60
2022-11-19T14:45:45.536Z,42.40
2022-11-19T14:48:12.007Z,42.30
2022-11-19T14:50:38.701Z,42.70
2022-11-19T14:53:05.178Z,42.50
2022-11-19T14:55:31.665Z,42.40
2022-11-19T14:57:58.125Z,42.50
2022-11-19T15:00:24.706Z,42.70
2022-11-19T15:02:51.173Z,42.40
2022-11-19T15:05:17.664Z,42.60
2022-11-19T15:07:44.247Z,42.60
2022-11-19T15:10:10.792Z,42.60
2022-11-19T15:12:37.257Z,42.40
2022-11-19T15:15:03.826Z,42.20
2022-11-19T15:17:30.416Z,42.00
2022-11-19T15:19:56.880Z,42.30
2022-11-19T15:22:23.368Z,42.00
2022-11-19T15:24:52.635Z,42.00
2022-11-19T15:27:19.161Z,42.20
2022-11-19T15:29:45.664Z,42.30
2022-11-19T15:32:12.161Z,42.10
2022-11-19T15:34:56.400Z,41.90
2022-11-19T15:37:25.114Z,42.10
2022-11-19T15:39:51.597Z,42.40
2022-11-19T15:42:18.134Z,42.10
2022-11-19T15:44:44.606Z,42.40
2022-11-19T15:47:11.212Z,42.40
2022-11-19T15:49:37.841Z,42.60
2022-11-19T15:52:04.304Z,42.90
2022-11-19T15:54:30.751Z,42.40
2022-11-19T15:56:57.392Z,43.00
2022-11-19T15:59:23.856Z,43.00
2022-11-19T16:01:50.433Z,42.80
2022-11-19T16:04:16.922Z,42.90
2022-11-19T16:06:43.670Z,42.80
2022-11-19T16:09:10.124Z,43.00
2022-11-19T16:11:36.587Z,42.90
2022-11-19T16:14:06.327Z,42.80
2022-11-19T16:16:32.876Z,43.10
2022-11-19T16:18:59.340Z,42.80
2022-11-19T16:21:26.041Z,42.80
2022-11-19T16:23:52.511Z,43.20
2022-11-19T16:26:19.066Z,42.10
2022-11-19T16:28:45.515Z,42.30
2022-11-19T16:31:12.022Z,42.50
2022-11-19T16:33:38.515Z,42.50
2022-11-19T16:36:04.994Z,42.70
2022-11-19T16:38:31.503Z,42.70
2022-11-19T16:41:05.704Z,42.70
2022-11-19T16:43:32.215Z,42.60
2022-11-19T16:45:58.689Z,43.10
2022-11-19T16:48:25.138Z,42.60
2022-11-19T16:50:51.649Z,42.50
2022-11-19T16:53:18.225Z,42.50
2022-11-19T16:55:44.681Z,42.30
2022-11-19T16:58:11.159Z,42.30
2022-11-19T17:00:37.628Z,42.20
2022-11-19T17:03:04.249Z,42.40
2022-11-19T17:05:30.712Z,43.00
2022-11-19T17:07:57.196Z,42.30
2022-11-19T17:10:24.494Z,42.40
2022-11-19T17:12:51.411Z,42.50
2022-11-19T17:15:17.891Z,42.30
2022-11-19T17:17:44.361Z,42.30
2022-11-19T17:20:10.836Z,42.40
2022-11-19T17:22:37.278Z,42.30
2022-11-19T17:25:03.717Z,42.20
2022-11-19T17:27:30.172Z,42.50
2022-11-19T17:29:56.733Z,42.50
2022-11-19T17:32:23.260Z,42.00
2022-11-19T17:34:49.745Z,42.40
2022-11-19T17:37:16.684Z,41.20
2022-11-19T17:39:43.173Z,40.90
2022-11-19T17:42:09.653Z,40.90
2022-11-19T17:44:36.145Z,41.00
2022-11-19T17:47:02.628Z,40.90
2022-11-19T17:49:29.092Z,40.70
2022-11-19T17:51:55.810Z,40.70
2022-11-19T17:54:22.641Z,40.70
2022-11-19T17:56:49.346Z,40.50
2022-11-19T17:59:15.820Z,40.70
2022-11-19T18:01:42.317Z,40.70
2022-11-19T18:04:08.821Z,40.40
2022-11-19T18:06:35.267Z,40.30
2022-11-19T18:09:01.765Z,40.50
2022-11-19T18:11:28.231Z,40.30
2022-11-19T18:13:54.710Z,40.60
2022-11-19T18:16:21.171Z,40.40
2022-11-19T18:18:47.651Z,40.30
2022-11-19T18:21:14.116Z,40.10
2022-11-19T18:23:40.917Z,40.00
2022-11-19T18:26:07.402Z,40.00
2022-11-19T18:28:33.850Z,40.70
2022-11-19T18:31:00.457Z,40.00
2022-11-19T18:33:26.924Z,40.00
2022-11-19T18:35:53.388Z,40.70
2022-11-19T18:38:19.850Z,39.90
2022-11-19T18:40:46.631Z,40.30
2022-11-19T18:45:53.423Z,40.30
2022-11-19T18:48:19.908Z,40.00
2022-11-19T18:50:46.386Z,39.90
2022-11-19T18:53:12.949Z,39.90
2022-11-19T18:55:39.419Z,39.90
2022-11-19T18:58:05.855Z,39.70
2022-11-19T19:00:32.356Z,39.90
2022-11-19T19:02:58.835Z,40.00
2022-11-19T19:05:25.308Z,40.00
2022-11-19T19:07:51.758Z,39.90
2022-11-19T19:10:18.291Z,39.70
2022-11-19T19:12:44.761Z,39.60
2022-11-19T19:15:11.225Z,39.50
2022-11-19T19:17:37.702Z,39.50
2022-11-19T19:20:04.162Z,39.50
2022-11-19T19:22:30.716Z,39.40
2022-11-19T19:24:58.476Z,39.60
2022-11-19T19:27:25.130Z,39.40
2022-11-19T19:29:51.634Z,39.50
2022-11-19T19:32:20.843Z,39.80
2022-11-19T19:34:47.329Z,39.40
2022-11-19T19:37:13.788Z,39.50
2022-11-19T19:39:40.251Z,39.50
2022-11-19T19:42:06.868Z,39.70
2022-11-19T19:44:33.348Z,39.30
2022-11-19T19:46:59.907Z,39.30
2022-11-19T19:49:36.066Z,39.70
2022-11-19T19:52:05.219Z,39.30
2022-11-19T19:54:31.691Z,39.90
2022-11-19T19:56:58.146Z,39.40
2022-11-19T19:59:24.771Z,39.30
2022-11-19T20:01:51.542Z,39.30
2022-11-19T20:04:18.077Z,39.30
2022-11-19T20:06:44.538Z,39.60
2022-11-19T20:09:11.004Z,39.20
2022-11-19T20:11:37.476Z,39.80
2022-11-19T20:14:03.935Z,39.40
2022-11-19T20:16:30.406Z,39.30
2022-11-19T20:18:56.863Z,39.20
2022-11-19T20:21:28.007Z,39.00
2022-11-19T20:23:54.462Z,39.60
2022-11-19T20:26:20.922Z,39.10
2022-11-19T20:28:47.372Z,39.60
2022-11-19T20:31:13.847Z,39.40
2022-11-19T20:33:40.477Z,39.50
2022-11-19T20:36:06.933Z,39.30
2022-11-19T20:38:36.502Z,39.20
2022-11-19T20:41:02.992Z,39.30
2022-11-19T20:43:29.479Z,39.10
2022-11-19T20:45:55.957Z,39.40
2022-11-19T20:48:22.423Z,39.10
2022-11-19T20:50:48.919Z,39.30
2022-11-19T20:53:15.377Z,39.20
2022-11-19T20:56:03.890Z,39.30
2022-11-19T20:58:28.296Z,38.90
2022-11-19T21:00:55.456Z,38.80
2022-11-19T21:03:21.938Z,39.30
2022-11-19T21:05:48.417Z,39.00
2022-11-19T21:08:14.905Z,38.90
2022-11-19T21:10:41.408Z,38.90
2022-11-19T21:13:07.880Z,39.10
2022-11-19T21:15:34.351Z,38.80
2022-11-19T21:18:00.811Z,39.00
2022-11-19T21:20:27.275Z,39.10
2022-11-19T21:22:53.745Z,39.00
2022-11-19T21:25:20.204Z,38.90
2022-11-19T21:27:47.174Z,38.70
2022-11-19T21:30:13.644Z,38.90
2022-11-19T21:32:40.108Z,38.70
2022-11-19T21:35:06.588Z,38.40
2022-11-19T21:37:33.577Z,38.90
2022-11-19T21:40:00.052Z,38.90
2022-11-19T21:42:26.559Z,38.70
2022-11-19T21:44:53.042Z,38.50
2022-11-19T21:47:19.547Z,39.10
2022-11-19T21:49:46.363Z,38.70
2022-11-19T21:52:12.849Z,39.00
2022-11-19T21:54:39.333Z,38.70
2022-11-19T21:57:05.824Z,38.90
2022-11-19T21:59:32.283Z,38.60
2022-11-19T22:01:58.752Z,38.60
2022-11-19T22:04:25.214Z,38.70
2022-11-19T22:06:51.680Z,38.80
2022-11-19T22:09:18.469Z,38.50
2022-11-19T22:11:45.231Z,39.00
2022-11-19T22:14:11.713Z,38.50
2022-11-19T22:16:38.247Z,38.80
2022-11-19T22:19:04.745Z,38.40
2022-11-19T22:21:31.202Z,38.70
2022-11-19T22:23:57.685Z,39.10
2022-11-19T22:26:24.146Z,38.60
2022-11-19T22:28:50.620Z,38.30
2022-11-19T22:31:17.058Z,38.40
2022-11-19T22:33:43.517Z,38.80
2022-11-19T22:36:10.580Z,38.40
2022-11-19T22:38:37.165Z,38.70
2022-11-19T22:41:03.637Z,38.40
2022-11-19T22:43:30.078Z,38.70
2022-11-19T22:45:56.551Z,38.60
2022-11-19T22:48:23.034Z,38.40
2022-11-19T22:50:49.512Z,38.60
2022-11-19T22:53:16.007Z,38.70
2022-11-19T22:55:42.466Z,38.00
2022-11-19T22:58:08.921Z,38.70
2022-11-19T23:00:35.431Z,38.60
2022-11-19T23:03:01.930Z,38.40
2022-11-19T23:05:31.887Z,38.40
2022-11-19T23:08:00.863Z,38.40
2022-11-19T23:10:27.315Z,38.10
2022-11-19T23:12:53.774Z,38.40
2022-11-19T23:15:20.246Z,38.10
2022-11-19T23:17:46.722Z,38.40
2022-11-19T23:20:13.201Z,38.20
2022-11-19T23:22:39.676Z,38.30
2022-11-19T23:25:06.144Z,38.10
2022-11-19T23:27:32.629Z,38.50
2022-11-19T23:29:59.088Z,38.40
2022-11-19T23:32:25.531Z,38.30
2022-11-19T23:34:52.011Z,37.90
2022-11-19T23:37:18.492Z,38.50
2022-11-19T23:39:44.966Z,38.40
2022-11-19T23:42:11.442Z,37.90
2022-11-19T23:44:37.896Z,38.30
2022-11-19T23:47:04.368Z,38.00
2022-11-19T23:49:30.834Z,38.10
2022-11-19T23:51:57.301Z,38.00
2022-11-19T23:54:23.776Z,38.00
2022-11-19T23:56:50.342Z,38.40
2022-11-19T23:59:19.524Z,38.40
